QPS weather

Campo Fontenelle Airport
Pirassununga, São Paulo, Brazil

Public forecast

Using degrees Celsius for public forecast. Weather courtesy of forecast.io.

METAR (pilot weather report)

Retrieved 2019/06/21 00:00 UTC (4 minutes ago):

SBYS 210000Z 20006KT CAVOK 15/13 Q1024

TAF (pilot weather forecast)

Retrieved 2019/06/21 00:33 UTC (0 seconds ago):

TAF TAF SBYS 202200Z 2100/2112 00000KT CAVOK TN08/2108Z TX11/2112Z PROB40 2108/2111 17002KT 2000 BR NSC RMK PFM